Time;durP1;ratioP1;P1;durP2;ratioP2;P2;SDS_P1;SDS_P2;PMS_P1;PMS_P2;Temp;Humidity;BMP_temperature;BMP_pressure;BME280_temperature;BME280_humidity;BME280_pressure;Samples;Min_cycle;Max_cycle;Signal;HPM_P1;HPM_P2
2022/07/17 00:00:25;;;;;;;1.80;0.50;;;10.50;95.90;10.40;101520.00;;;;4955360;28;89049;-60
2022/07/17 00:02:52;;;;;;;0.63;0.63;;;10.50;96.30;10.40;101514.00;;;;4956510;28;88238;-61
2022/07/17 00:05:19;;;;;;;0.30;0.30;;;10.40;96.60;10.30;101513.00;;;;4955592;28;88876;-60
2022/07/17 00:07:47;;;;;;;1.13;0.53;;;10.30;97.00;10.20;101519.00;;;;4957106;28;88880;-61
2022/07/17 00:10:12;;;;;;;2.10;1.17;;;10.30;97.30;10.20;101518.00;;;;4956885;28;87723;-60
2022/07/17 00:12:38;;;;;;;0.63;0.63;;;10.20;97.60;10.10;101519.00;;;;4955159;28;108662;-59
2022/07/17 00:15:04;;;;;;;1.03;0.93;;;10.20;97.90;10.10;101534.00;;;;4955742;28;104132;-58
2022/07/17 00:17:30;;;;;;;0.30;0.20;;;10.10;98.20;10.00;101525.00;;;;4955201;28;93621;-60
2022/07/17 00:19:56;;;;;;;0.37;0.37;;;10.10;98.60;9.90;101530.00;;;;4936360;28;88786;-60
2022/07/17 00:22:21;;;;;;;0.40;0.40;;;10.00;98.90;9.90;101528.00;;;;4954612;28;108851;-61
2022/07/17 00:24:47;;;;;;;0.83;0.80;;;10.00;99.20;9.80;101523.00;;;;4954754;28;117580;-59
2022/07/17 00:27:13;;;;;;;0.80;0.50;;;9.90;99.50;9.80;101533.00;;;;4954395;28;88791;-60
2022/07/17 00:29:39;;;;;;;0.33;0.33;;;9.90;99.80;9.80;101528.00;;;;4954607;28;111564;-61
2022/07/17 00:32:05;;;;;;;1.33;0.90;;;9.80;99.90;9.70;101542.00;;;;4954626;28;107985;-60
2022/07/17 00:34:30;;;;;;;0.43;0.43;;;9.80;99.90;9.70;101540.00;;;;4954546;28;108593;-60
2022/07/17 00:36:56;;;;;;;1.37;1.00;;;9.70;99.90;9.60;101536.00;;;;4954473;28;117775;-61
2022/07/17 00:39:22;;;;;;;0.50;0.50;;;9.70;99.90;9.60;101540.00;;;;4954410;28;109868;-60
2022/07/17 00:41:47;;;;;;;0.63;0.50;;;9.60;99.90;9.50;101529.00;;;;4954282;28;109317;-60
2022/07/17 00:44:13;;;;;;;2.30;0.57;;;9.60;99.90;9.50;101537.00;;;;4953234;28;118071;-60
2022/07/17 00:46:40;;;;;;;0.73;0.70;;;9.50;99.90;9.40;101534.00;;;;4954794;28;89467;-61
2022/07/17 00:49:07;;;;;;;0.73;0.70;;;9.50;99.90;9.40;101535.00;;;;4955805;28;87958;-61
2022/07/17 00:51:33;;;;;;;0.50;0.50;;;9.40;99.90;9.30;101541.00;;;;4955140;28;87678;-60
2022/07/17 00:53:59;;;;;;;2.63;0.60;;;9.40;99.90;9.30;101549.00;;;;4955254;28;93534;-61
2022/07/17 00:56:27;;;;;;;1.27;0.67;;;9.40;99.90;9.20;101542.00;;;;4936972;28;88317;-59
2022/07/17 00:58:54;;;;;;;1.67;0.47;;;9.30;99.90;9.20;101536.00;;;;4954567;28;88537;-61
2022/07/17 01:01:20;;;;;;;0.93;0.80;;;9.30;99.90;9.10;101537.00;;;;4955166;28;87235;-61
2022/07/17 01:03:45;;;;;;;0.60;0.60;;;9.20;99.90;9.10;101545.00;;;;4953996;28;96669;-60
2022/07/17 01:06:11;;;;;;;1.37;0.60;;;9.10;99.90;9.10;101540.00;;;;4957466;28;88097;-60
2022/07/17 01:08:38;;;;;;;3.53;1.50;;;9.10;99.90;9.00;101540.00;;;;4957719;28;88786;-60
2022/07/17 01:11:04;;;;;;;0.40;0.40;;;9.10;99.90;9.00;101549.00;;;;4940450;28;88032;-60
2022/07/17 01:13:31;;;;;;;1.80;1.10;;;9.10;99.90;9.00;101548.00;;;;4957797;28;87793;-59
2022/07/17 01:15:57;;;;;;;1.13;0.47;;;9.00;99.90;8.90;101551.00;;;;4958669;28;88601;-60
2022/07/17 01:18:23;;;;;;;0.50;0.50;;;9.00;99.90;8.90;101554.00;;;;4957511;28;100576;-60
2022/07/17 01:20:49;;;;;;;0.67;0.67;;;9.00;99.90;8.90;101550.00;;;;4957536;28;108749;-60
2022/07/17 01:23:17;;;;;;;2.10;1.00;;;8.90;99.90;8.80;101548.00;;;;4956566;28;117663;-60
2022/07/17 01:25:44;;;;;;;0.83;0.83;;;8.90;99.90;8.80;101545.00;;;;4958102;28;93120;-60
2022/07/17 01:28:11;;;;;;;0.67;0.67;;;8.90;99.90;8.80;101549.00;;;;4956815;28;99482;-60
2022/07/17 01:30:37;;;;;;;0.50;0.50;;;8.90;99.90;8.80;101546.00;;;;4957904;28;88001;-61
2022/07/17 01:33:03;;;;;;;5.47;0.60;;;8.80;99.90;8.80;101544.00;;;;4939163;28;89057;-60
2022/07/17 01:35:29;;;;;;;1.53;0.63;;;8.80;99.90;8.70;101545.00;;;;4956917;28;115670;-60
2022/07/17 01:37:55;;;;;;;0.53;0.53;;;8.80;99.90;8.70;101554.00;;;;4956895;28;109247;-60
2022/07/17 01:40:21;;;;;;;1.23;1.00;;;8.80;99.90;8.70;101555.00;;;;4957032;28;105211;-61
2022/07/17 01:42:49;;;;;;;0.63;0.40;;;8.80;99.90;8.70;101553.00;;;;4956466;28;118076;-60
2022/07/17 01:45:17;;;;;;;1.23;0.60;;;8.80;99.90;8.70;101556.00;;;;4957545;28;101071;-60
2022/07/17 01:47:43;;;;;;;1.63;1.03;;;8.80;99.90;8.70;101553.00;;;;4958244;28;90157;-60
2022/07/17 01:50:11;;;;;;;0.63;0.63;;;8.70;99.90;8.70;101553.00;;;;4956830;28;107996;-59
2022/07/17 01:52:39;;;;;;;0.70;0.70;;;8.70;99.90;8.70;101545.00;;;;4957042;28;89251;-60
2022/07/17 01:55:07;;;;;;;0.70;0.70;;;8.70;99.90;8.70;101544.00;;;;4958014;28;89088;-60
2022/07/17 01:57:33;;;;;;;1.03;0.93;;;8.70;99.90;8.70;101549.00;;;;4956896;28;88984;-60
2022/07/17 01:59:59;;;;;;;0.63;0.63;;;8.70;99.90;8.70;101550.00;;;;4956114;28;108892;-60
2022/07/17 02:02:26;;;;;;;0.43;0.40;;;8.70;99.90;8.60;101543.00;;;;4955866;28;88857;-60
2022/07/17 02:04:52;;;;;;;0.47;0.40;;;8.70;99.90;8.60;101543.00;;;;4956779;28;102337;-61
2022/07/17 02:07:17;;;;;;;0.83;0.83;;;8.70;99.90;8.60;101536.00;;;;4957002;28;109730;-60
2022/07/17 02:09:43;;;;;;;1.87;1.13;;;8.70;99.90;8.60;101538.00;;;;4956406;28;109955;-60
2022/07/17 02:12:09;;;;;;;3.20;0.77;;;8.70;99.90;8.60;101536.00;;;;4955660;28;117593;-61
2022/07/17 02:14:35;;;;;;;0.93;0.90;;;8.60;99.90;8.50;101539.00;;;;4956877;28;116491;-59
2022/07/17 02:17:02;;;;;;;1.40;0.70;;;8.60;99.90;8.50;101545.00;;;;4957074;28;87586;-60
2022/07/17 02:19:28;;;;;;;0.80;0.60;;;8.60;99.90;8.50;101547.00;;;;4957291;28;87546;-60
2022/07/17 02:21:54;;;;;;;0.97;0.73;;;8.60;99.90;8.40;101539.00;;;;4955068;28;117937;-61
2022/07/17 02:24:20;;;;;;;0.70;0.70;;;8.50;99.90;8.40;101535.00;;;;4956835;28;90678;-60
2022/07/17 02:26:45;;;;;;;4.27;0.63;;;8.50;99.90;8.30;101536.00;;;;4957168;28;96141;-61
2022/07/17 02:29:11;;;;;;;0.50;0.50;;;8.40;99.90;8.30;101528.00;;;;4956888;28;87564;-60
2022/07/17 02:31:37;;;;;;;0.93;0.93;;;8.40;99.90;8.30;101523.00;;;;4956739;28;106257;-60
2022/07/17 02:34:02;;;;;;;1.47;0.90;;;8.40;99.90;8.20;101532.00;;;;4956258;28;117505;-60
2022/07/17 02:36:28;;;;;;;1.50;0.90;;;8.30;99.90;8.20;101543.00;;;;4956184;28;109710;-60
2022/07/17 02:38:54;;;;;;;0.40;0.40;;;8.30;99.90;8.10;101532.00;;;;4957581;28;86905;-59
2022/07/17 02:41:20;;;;;;;0.83;0.83;;;8.20;99.90;8.10;101531.00;;;;4957032;28;96975;-60
2022/07/17 02:43:45;;;;;;;1.23;0.50;;;8.20;99.90;8.10;101534.00;;;;4955474;28;104621;-60
2022/07/17 02:46:13;;;;;;;0.53;0.53;;;8.50;99.90;8.10;101532.00;;;;4956632;28;88639;-59
2022/07/17 02:48:40;;;;;;;0.67;0.67;;;8.10;99.90;8.10;101536.00;;;;4956535;28;87950;-61
2022/07/17 02:51:06;;;;;;;1.07;0.77;;;8.10;99.90;8.10;101542.00;;;;4956393;28;109009;-61
2022/07/17 02:53:32;;;;;;;1.60;0.93;;;8.10;99.90;8.00;101532.00;;;;4957076;28;87886;-59
2022/07/17 02:55:58;;;;;;;2.13;1.30;;;8.10;99.90;8.10;101541.00;;;;4956349;28;96628;-60
2022/07/17 02:58:24;;;;;;;0.70;0.70;;;8.10;99.90;8.00;101543.00;;;;4938155;28;87688;-60
2022/07/17 03:00:49;;;;;;;0.60;0.40;;;8.10;99.90;8.10;101544.00;;;;4956656;28;88342;-60
2022/07/17 03:03:15;;;;;;;0.70;0.70;;;8.10;99.90;8.10;101551.00;;;;4955472;28;116375;-60
2022/07/17 03:05:41;;;;;;;0.87;0.57;;;8.10;99.90;8.10;101548.00;;;;4955928;28;94388;-61
2022/07/17 03:08:06;;;;;;;1.50;0.67;;;8.10;99.90;8.00;101539.00;;;;4956157;28;107723;-59
2022/07/17 03:10:32;;;;;;;2.27;0.73;;;8.10;99.90;8.00;101544.00;;;;4956251;28;104059;-61
2022/07/17 03:12:58;;;;;;;1.07;0.97;;;8.10;99.90;8.00;101546.00;;;;4955906;28;109033;-59
2022/07/17 03:15:24;;;;;;;2.63;0.63;;;8.10;99.90;8.00;101555.00;;;;4955592;28;111202;-60
2022/07/17 03:17:49;;;;;;;0.77;0.70;;;8.10;99.90;8.00;101557.00;;;;4937943;28;88158;-59
2022/07/17 03:20:15;;;;;;;1.20;0.93;;;8.10;99.90;8.00;101557.00;;;;4955884;28;113039;-59
2022/07/17 03:22:41;;;;;;;0.53;0.50;;;8.00;99.90;7.90;101559.00;;;;4954945;28;115806;-59
2022/07/17 03:25:08;;;;;;;0.40;0.40;;;8.00;99.90;7.90;101558.00;;;;4955446;28;110597;-60
2022/07/17 03:27:34;;;;;;;0.53;0.53;;;8.00;99.90;7.90;101566.00;;;;4953563;28;99181;-61
2022/07/17 03:29:59;;;;;;;1.90;0.50;;;7.90;99.90;7.80;101558.00;;;;4956180;28;88118;-60
2022/07/17 03:32:25;;;;;;;1.20;0.77;;;8.00;99.90;7.80;101569.00;;;;4954748;28;117759;-61
2022/07/17 03:34:51;;;;;;;1.70;0.90;;;7.90;99.90;7.80;101561.00;;;;4955983;28;88765;-59
2022/07/17 03:37:16;;;;;;;0.43;0.30;;;7.90;99.90;7.80;101562.00;;;;4956155;28;108337;-60
2022/07/17 03:39:43;;;;;;;0.67;0.60;;;7.90;99.90;7.80;101558.00;;;;4956183;28;89178;-59
2022/07/17 03:42:08;;;;;;;0.50;0.50;;;7.90;99.90;7.80;101557.00;;;;4956123;28;104535;-60
2022/07/17 03:44:34;;;;;;;1.63;0.70;;;7.90;99.90;7.80;101564.00;;;;4955279;28;87576;-61
2022/07/17 03:47:00;;;;;;;0.90;0.77;;;7.80;99.90;7.80;101564.00;;;;4955274;28;108561;-60
2022/07/17 03:49:26;;;;;;;0.97;0.63;;;7.80;99.90;7.80;101564.00;;;;4954896;28;108086;-61
2022/07/17 03:51:52;;;;;;;4.47;0.80;;;7.90;99.90;7.80;101578.00;;;;4955619;28;116941;-60
2022/07/17 03:54:18;;;;;;;8.43;1.13;;;7.90;99.90;7.80;101571.00;;;;4956475;28;87739;-60
2022/07/17 03:56:43;;;;;;;0.83;0.67;;;7.90;99.90;7.80;101573.00;;;;4954560;28;98920;-60
2022/07/17 03:59:09;;;;;;;1.30;0.80;;;7.90;99.90;7.90;101578.00;;;;4954220;28;117679;-60
2022/07/17 04:01:35;;;;;;;0.53;0.53;;;8.00;99.90;7.90;101578.00;;;;4954583;28;118362;-60
2022/07/17 04:04:00;;;;;;;1.93;0.80;;;8.00;99.90;8.00;101575.00;;;;4955014;28;105469;-58
2022/07/17 04:06:26;;;;;;;1.07;0.77;;;8.00;99.90;8.10;101578.00;;;;4956472;28;87920;-61
2022/07/17 04:08:52;;;;;;;1.07;0.80;;;8.10;99.90;8.10;101588.00;;;;4954137;28;117674;-61
2022/07/17 04:11:19;;;;;;;1.63;1.00;;;8.20;99.90;8.20;101577.00;;;;4955519;28;89661;-60
2022/07/17 04:13:46;;;;;;;2.40;0.40;;;8.30;99.90;8.30;101585.00;;;;4955801;28;87751;-61
2022/07/17 04:16:11;;;;;;;0.40;0.40;;;8.40;99.90;8.40;101591.00;;;;4956554;28;86911;-59
2022/07/17 04:18:37;;;;;;;0.67;0.47;;;8.50;99.90;8.50;101594.00;;;;4955278;28;99630;-61
2022/07/17 04:21:07;;;;;;;2.33;0.70;;;8.50;99.90;8.60;101603.00;;;;4955496;28;88871;-61
2022/07/17 04:23:34;;;;;;;1.17;1.00;;;8.70;99.90;8.80;101596.00;;;;4954550;28;88776;-60
2022/07/17 04:26:00;;;;;;;0.20;0.20;;;8.80;99.90;8.90;101605.00;;;;4938542;28;87986;-62
2022/07/17 04:28:26;;;;;;;0.80;0.80;;;8.80;99.90;9.00;101607.00;;;;4955042;28;88498;-61
2022/07/17 04:30:52;;;;;;;0.60;0.60;;;9.00;99.90;9.20;101602.00;;;;4955009;28;117749;-58
2022/07/17 04:33:17;;;;;;;2.13;0.90;;;9.10;99.90;9.30;101606.00;;;;4954459;28;110596;-61
2022/07/17 04:35:43;;;;;;;2.70;1.53;;;9.20;99.90;9.50;101604.00;;;;4955835;28;87757;-61
2022/07/17 04:38:10;;;;;;;2.67;0.83;;;9.40;99.90;9.60;101619.00;;;;4936503;28;89186;-60
2022/07/17 04:40:38;;;;;;;1.23;0.97;;;9.60;99.90;9.80;101618.00;;;;4938708;28;91313;-60
2022/07/17 04:43:04;;;;;;;1.90;0.97;;;9.80;99.90;10.00;101620.00;;;;4957991;28;98711;-61
2022/07/17 04:45:31;;;;;;;1.60;1.07;;;9.90;99.90;10.20;101628.00;;;;4958486;28;101342;-60
2022/07/17 04:47:57;;;;;;;0.40;0.40;;;10.10;99.90;10.30;101622.00;;;;4958376;28;88767;-61
2022/07/17 04:50:24;;;;;;;0.93;0.87;;;10.30;99.90;10.50;101635.00;;;;4956756;28;118823;-61
2022/07/17 04:52:50;;;;;;;0.70;0.70;;;10.50;99.90;10.70;101635.00;;;;4958545;28;88013;-61
2022/07/17 04:55:16;;;;;;;0.57;0.50;;;10.70;99.90;10.90;101642.00;;;;4958634;28;87769;-61
2022/07/17 04:57:42;;;;;;;1.47;0.73;;;10.90;99.90;11.10;101634.00;;;;4964135;28;88964;-61
2022/07/17 05:00:10;;;;;;;8.80;1.17;;;11.10;99.90;11.30;101639.00;;;;4958207;28;99071;-61
2022/07/17 05:02:36;;;;;;;0.70;0.63;;;11.30;99.90;11.50;101632.00;;;;4939915;28;88195;-61
2022/07/17 05:05:03;;;;;;;1.50;0.80;;;11.40;99.90;11.70;101635.00;;;;4959890;28;86934;-63
2022/07/17 05:07:30;;;;;;;0.40;0.40;;;11.60;99.90;11.90;101641.00;;;;4957225;28;103976;-61
2022/07/17 05:09:56;;;;;;;1.13;0.50;;;11.90;99.90;12.10;101646.00;;;;4958280;28;88024;-61
2022/07/17 05:12:21;;;;;;;0.53;0.50;;;12.00;99.90;12.30;101645.00;;;;4957913;28;88806;-61
2022/07/17 05:14:47;;;;;;;1.97;0.63;;;12.20;99.90;12.40;101644.00;;;;4957111;28;108515;-60
2022/07/17 05:17:13;;;;;;;1.73;0.70;;;12.40;99.90;12.60;101643.00;;;;4958285;28;87732;-62
2022/07/17 05:19:39;;;;;;;0.70;0.60;;;12.50;99.90;12.80;101646.00;;;;4957221;28;106847;-60
2022/07/17 05:22:05;;;;;;;0.70;0.63;;;12.70;99.90;13.00;101648.00;;;;4957500;28;110222;-60
2022/07/17 05:24:32;;;;;;;0.43;0.43;;;12.90;99.90;13.20;101643.00;;;;4956864;28;106662;-60
2022/07/17 05:26:57;;;;;;;1.33;0.77;;;13.10;99.90;13.40;101642.00;;;;4957701;28;88272;-60
2022/07/17 05:29:23;;;;;;;0.40;0.40;;;13.30;99.90;13.50;101653.00;;;;4956814;28;116909;-60
2022/07/17 05:31:49;;;;;;;0.40;0.40;;;13.50;99.90;13.70;101649.00;;;;4939106;28;109503;-61
2022/07/17 05:34:15;;;;;;;0.53;0.43;;;13.60;99.90;13.90;101650.00;;;;4958471;28;88056;-61
2022/07/17 05:36:40;;;;;;;0.80;0.80;;;13.80;99.90;14.10;101646.00;;;;4956293;28;117218;-61
2022/07/17 05:39:06;;;;;;;6.63;1.30;;;14.00;99.90;14.30;101652.00;;;;4956528;28;118369;-60
2022/07/17 05:41:32;;;;;;;0.68;0.60;;;14.10;99.90;14.40;101663.00;;;;4958359;28;88072;-60
2022/07/17 05:43:57;;;;;;;4.63;1.43;;;14.30;99.90;14.60;101656.00;;;;4958118;28;97660;-61
2022/07/17 05:46:23;;;;;;;3.70;1.37;;;14.40;99.90;14.80;101659.00;;;;4957058;28;116974;-60
2022/07/17 05:48:49;;;;;;;1.20;0.70;;;14.60;99.90;14.90;101663.00;;;;4957215;28;117470;-59
2022/07/17 05:51:14;;;;;;;1.25;0.93;;;14.80;99.60;15.10;101669.00;;;;4953724;28;110553;-60
2022/07/17 05:53:40;;;;;;;0.77;0.70;;;14.90;98.90;15.20;101665.00;;;;4954316;28;108290;-60
2022/07/17 05:56:06;;;;;;;1.13;1.10;;;15.00;98.50;15.30;101663.00;;;;4945574;28;90436;-61
2022/07/17 05:58:32;;;;;;;2.53;1.70;;;15.20;98.10;15.40;101676.00;;;;4953817;28;87957;-61
2022/07/17 06:00:57;;;;;;;1.33;0.98;;;15.30;97.60;15.60;101672.00;;;;4952674;28;98908;-61
2022/07/17 06:03:23;;;;;;;1.30;1.13;;;15.50;97.20;15.70;101674.00;;;;4953400;28;109153;-61
2022/07/17 06:05:48;;;;;;;0.80;0.70;;;15.60;97.10;15.90;101668.00;;;;4952406;28;118637;-59
2022/07/17 06:08:14;;;;;;;5.70;0.90;;;15.80;96.90;16.00;101668.00;;;;4934961;28;117956;-60
2022/07/17 06:10:40;;;;;;;0.80;0.70;;;15.80;96.50;16.20;101675.00;;;;4954149;28;107798;-60
2022/07/17 06:13:06;;;;;;;3.22;1.38;;;16.10;96.00;16.30;101675.00;;;;4953509;28;87818;-61
2022/07/17 06:15:31;;;;;;;1.98;1.17;;;16.30;95.80;16.50;101688.00;;;;4953704;28;100092;-61
2022/07/17 06:18:02;;;;;;;1.60;1.08;;;16.40;95.20;16.70;101675.00;;;;4952483;28;114846;-62
2022/07/17 06:20:28;;;;;;;2.15;1.83;;;16.60;94.40;16.80;101677.00;;;;4954313;28;87747;-61
2022/07/17 06:22:54;;;;;;;2.55;1.20;;;16.70;93.90;17.00;101673.00;;;;4953431;28;87806;-62
2022/07/17 06:25:20;;;;;;;1.88;1.33;;;16.90;93.80;17.20;101678.00;;;;4951735;28;119245;-62
2022/07/17 06:27:45;;;;;;;3.65;0.70;;;17.10;93.50;17.40;101687.00;;;;4952519;28;107255;-61
2022/07/17 06:30:13;;;;;;;1.15;0.80;;;17.30;93.10;17.60;101683.00;;;;4954007;28;87974;-62
2022/07/17 06:32:39;;;;;;;3.45;1.35;;;17.50;92.60;17.80;101691.00;;;;4953666;28;87858;-61
2022/07/17 06:35:06;;;;;;;1.48;0.50;;;17.70;92.40;18.00;101697.00;;;;4953941;28;89791;-61
2022/07/17 06:37:32;;;;;;;1.90;0.90;;;17.90;91.60;18.20;101691.00;;;;4950967;28;87878;-61
2022/07/17 06:39:57;;;;;;;0.40;0.40;;;18.00;91.10;18.40;101700.00;;;;4953833;28;87691;-61
2022/07/17 06:42:23;;;;;;;0.60;0.60;;;18.20;90.60;18.50;101696.00;;;;4954051;28;87236;-61
2022/07/17 06:44:49;;;;;;;1.17;0.70;;;18.40;90.00;18.70;101685.00;;;;4952711;28;116518;-62
2022/07/17 06:47:14;;;;;;;1.30;0.70;;;18.50;88.30;18.80;101699.00;;;;4952065;28;117246;-62
2022/07/17 06:49:40;;;;;;;0.55;0.43;;;18.70;87.10;19.00;101706.00;;;;4952305;28;110186;-62
2022/07/17 06:52:06;;;;;;;0.70;0.70;;;18.80;85.90;19.10;101702.00;;;;4953700;28;87712;-61
2022/07/17 06:54:32;;;;;;;2.63;0.68;;;19.00;85.10;19.20;101709.00;;;;4952371;28;116117;-61
2022/07/17 06:56:57;;;;;;;1.00;0.60;;;19.10;84.00;19.30;101701.00;;;;4952148;28;100045;-60
2022/07/17 06:59:23;;;;;;;0.98;0.77;;;19.20;82.60;19.40;101710.00;;;;4952487;28;87636;-61
2022/07/17 07:01:49;;;;;;;0.80;0.75;;;19.30;82.40;19.50;101713.00;;;;4952571;28;109094;-61
2022/07/17 07:04:14;;;;;;;1.88;0.70;;;19.40;80.00;19.60;101704.00;;;;4952692;28;88989;-62
2022/07/17 07:06:41;;;;;;;0.88;0.50;;;19.50;79.00;19.70;101710.00;;;;4952405;28;117326;-61
2022/07/17 07:09:07;;;;;;;0.93;0.70;;;19.60;77.50;19.70;101702.00;;;;4953437;28;87538;-60
2022/07/17 07:11:32;;;;;;;1.17;0.50;;;19.60;76.30;19.90;101705.00;;;;4952805;28;87681;-61
2022/07/17 07:13:58;;;;;;;0.90;0.65;;;19.70;76.00;20.00;101700.00;;;;4950286;28;91811;-62
2022/07/17 07:16:24;;;;;;;0.30;0.30;;;19.80;75.30;20.20;101704.00;;;;4953881;28;88624;-61
2022/07/17 07:18:50;;;;;;;0.70;0.70;;;20.00;74.20;20.40;101703.00;;;;4951578;28;108295;-62
2022/07/17 07:21:15;;;;;;;1.70;0.70;;;20.20;73.30;20.60;101712.00;;;;4952218;28;108553;-62
2022/07/17 07:23:41;;;;;;;0.73;0.63;;;20.40;72.30;20.80;101709.00;;;;4952306;28;109482;-62
2022/07/17 07:26:07;;;;;;;0.47;0.40;;;20.60;71.30;20.90;101709.00;;;;4952016;28;117109;-61
2022/07/17 07:28:34;;;;;;;1.38;0.90;;;20.70;68.90;20.90;101716.00;;;;4952249;28;87962;-62
2022/07/17 07:30:59;;;;;;;1.27;0.40;;;20.80;67.00;21.00;101711.00;;;;4953469;28;87031;-61
2022/07/17 07:33:25;;;;;;;0.60;0.32;;;20.80;65.00;20.90;101719.00;;;;4951773;28;105682;-61
2022/07/17 07:35:51;;;;;;;1.08;0.30;;;20.80;64.30;20.80;101716.00;;;;4951684;28;117401;-61
2022/07/17 07:38:17;;;;;;;1.70;0.80;;;20.70;63.30;20.60;101721.00;;;;4951321;28;111738;-61
2022/07/17 07:40:42;;;;;;;1.08;0.35;;;20.60;63.60;20.60;101715.00;;;;4952574;28;92274;-62
2022/07/17 07:43:08;;;;;;;1.80;0.90;;;20.50;63.40;20.60;101712.00;;;;4952118;28;88752;-61
2022/07/17 07:45:34;;;;;;;1.00;0.60;;;20.50;63.10;20.70;101724.00;;;;4952023;28;116817;-61
2022/07/17 07:48:00;;;;;;;3.63;0.75;;;20.50;63.00;21.00;101720.00;;;;4952502;28;87818;-61
2022/07/17 07:50:28;;;;;;;0.63;0.63;;;20.70;62.10;21.10;101713.00;;;;4951599;28;109083;-61
2022/07/17 07:52:54;;;;;;;2.88;0.63;;;20.90;60.50;21.30;101711.00;;;;4952049;28;88561;-61
2022/07/17 07:55:21;;;;;;;4.40;0.40;;;21.10;60.90;21.50;101708.00;;;;4952389;28;101520;-62
2022/07/17 07:57:49;;;;;;;0.10;0.10;;;21.20;59.90;21.60;101704.00;;;;4952203;28;87960;-59
2022/07/17 08:00:16;;;;;;;0.47;0.38;;;21.40;59.50;21.60;101706.00;;;;4938793;28;88248;-60
2022/07/17 08:02:42;;;;;;;0.75;0.40;;;21.50;58.80;21.60;101699.00;;;;4948968;28;89572;-62
2022/07/17 08:05:08;;;;;;;0.30;0.20;;;21.40;58.50;21.40;101712.00;;;;4948909;28;120584;-60
2022/07/17 08:07:35;;;;;;;2.25;0.50;;;21.40;57.90;21.20;101715.00;;;;4951340;28;103332;-59
2022/07/17 08:10:02;;;;;;;0.63;0.28;;;21.20;57.90;21.20;101711.00;;;;4951878;28;87637;-61
2022/07/17 08:12:28;;;;;;;1.23;0.50;;;21.20;58.50;21.30;101711.00;;;;4951338;28;95589;-62
2022/07/17 08:14:53;;;;;;;1.02;0.60;;;21.20;58.30;21.60;101712.00;;;;4950875;28;116786;-62
2022/07/17 08:17:20;;;;;;;0.50;0.43;;;21.30;58.10;21.80;101711.00;;;;4951729;28;110683;-61
2022/07/17 08:19:46;;;;;;;0.77;0.40;;;21.60;57.80;22.00;101716.00;;;;4952326;28;86959;-62
2022/07/17 08:22:12;;;;;;;0.60;0.60;;;21.70;57.20;22.00;101725.00;;;;4951541;28;117227;-59
2022/07/17 08:24:38;;;;;;;0.95;0.30;;;21.80;56.50;21.80;101718.00;;;;4953125;28;89291;-62
2022/07/17 08:27:04;;;;;;;1.20;0.57;;;21.70;55.70;21.80;101718.00;;;;4950801;28;88515;-62
2022/07/17 08:29:30;;;;;;;1.38;0.70;;;21.70;56.00;22.00;101715.00;;;;4952179;28;87689;-61
2022/07/17 08:31:56;;;;;;;2.15;0.52;;;21.80;56.20;22.30;101718.00;;;;4932778;28;88208;-61
2022/07/17 08:34:22;;;;;;;0.57;0.32;;;22.00;56.30;22.50;101721.00;;;;4933123;28;88501;-60
2022/07/17 08:36:47;;;;;;;1.70;0.63;;;22.20;55.70;22.80;101713.00;;;;4952157;28;87864;-61
2022/07/17 08:39:13;;;;;;;0.43;0.38;;;22.50;55.30;22.80;101723.00;;;;4951126;28;95697;-61
2022/07/17 08:41:39;;;;;;;0.63;0.63;;;22.60;54.40;22.70;101721.00;;;;4950981;28;106003;-60
2022/07/17 08:44:06;;;;;;;3.92;0.65;;;22.60;53.70;22.70;101722.00;;;;4951152;28;107749;-61
2022/07/17 08:46:36;;;;;;;0.73;0.40;;;22.50;54.00;22.80;101718.00;;;;4951430;28;89711;-62
2022/07/17 08:49:04;;;;;;;0.50;0.35;;;22.60;53.90;22.90;101721.00;;;;4952059;28;87889;-62
2022/07/17 08:51:30;;;;;;;1.48;0.73;;;22.70;54.30;23.10;101710.00;;;;4950677;28;88903;-62
2022/07/17 08:53:57;;;;;;;7.47;0.88;;;22.80;53.90;23.30;101711.00;;;;4950986;28;111219;-62
2022/07/17 08:56:23;;;;;;;0.57;0.50;;;23.00;53.90;23.60;101711.00;;;;4951939;28;88045;-61
2022/07/17 08:58:50;;;;;;;1.23;0.47;;;23.20;53.30;23.80;101713.00;;;;4951811;28;87775;-62
2022/07/17 09:01:19;;;;;;;0.95;0.10;;;23.50;52.60;24.00;101714.00;;;;4951039;28;106970;-60
2022/07/17 09:04:05;;;;;;;4.35;0.47;;;23.70;52.00;24.30;101707.00;;;;4951910;28;88580;-62
2022/07/17 09:06:32;;;;;;;3.97;0.98;;;24.00;50.60;24.20;101702.00;;;;4951383;28;87930;-62
2022/07/17 09:09:10;;;;;;;0.88;0.55;;;24.00;50.00;24.10;101704.00;;;;4951621;28;87064;-60
2022/07/17 09:11:48;;;;;;;0.30;0.30;;;23.90;49.90;24.00;101703.00;;;;4951221;28;88609;-63
2022/07/17 09:14:14;;;;;;;4.40;0.75;;;23.80;49.90;24.10;101708.00;;;;4951324;28;88277;-61
2022/07/17 09:16:59;;;;;;;0.47;0.47;;;23.80;50.00;24.20;101715.00;;;;4932104;28;111060;-63
2022/07/17 09:19:30;;;;;;;3.13;1.20;;;24.00;50.30;24.30;101724.00;;;;4951331;28;87971;-62
2022/07/17 09:22:26;;;;;;;0.85;0.40;;;24.00;49.90;24.10;101709.00;;;;4948786;28;88082;-62
2022/07/17 09:24:56;;;;;;;0.85;0.50;;;24.00;48.50;23.70;101707.00;;;;4950247;28;98469;-62
2022/07/17 09:27:24;;;;;;;1.02;0.85;;;23.70;48.50;23.50;101717.00;;;;4953390;28;87594;-63
2022/07/17 09:29:54;;;;;;;0.95;0.47;;;23.50;48.80;23.50;101723.00;;;;4954889;28;105910;-62
2022/07/17 09:32:23;;;;;;;1.83;0.93;;;23.40;49.30;23.60;101712.00;;;;4954528;28;88203;-62
2022/07/17 09:34:50;;;;;;;0.60;0.40;;;23.40;49.20;23.60;101715.00;;;;4949049;28;87550;-63
2022/07/17 09:37:17;;;;;;;0.20;0.20;;;23.40;48.70;23.60;101722.00;;;;4955140;28;88053;-61
2022/07/17 09:39:43;;;;;;;5.82;0.65;;;23.40;48.80;23.40;101734.00;;;;4954582;28;87861;-61
2022/07/17 09:42:11;;;;;;;0.55;0.28;;;23.30;48.70;23.40;101737.00;;;;4945666;28;88681;-62
2022/07/17 09:44:38;;;;;;;0.40;0.40;;;23.20;49.20;23.60;101739.00;;;;4930184;28;102021;-61
2022/07/17 09:47:03;;;;;;;1.00;0.75;;;23.30;49.50;23.70;101728.00;;;;4934244;28;87872;-62
2022/07/17 09:49:29;;;;;;;0.73;0.57;;;23.40;49.50;23.90;101729.00;;;;4933423;28;88287;-62
2022/07/17 09:51:55;;;;;;;1.25;0.55;;;23.50;49.40;24.00;101728.00;;;;4935055;28;117700;-63
2022/07/17 09:54:22;;;;;;;1.95;0.93;;;23.60;49.40;24.10;101734.00;;;;4935277;28;116807;-62
2022/07/17 09:56:51;;;;;;;0.17;0.17;;;23.70;49.10;24.10;101728.00;;;;4932799;28;88163;-62
2022/07/17 09:59:18;;;;;;;0.52;0.43;;;23.80;49.10;24.10;101734.00;;;;4951978;28;87023;-62
2022/07/17 10:01:49;;;;;;;0.88;0.30;;;23.80;49.10;24.20;101723.00;;;;4954051;28;89259;-62
2022/07/17 10:04:19;;;;;;;1.05;0.65;;;23.80;49.10;24.30;101720.00;;;;4946996;28;87952;-62
2022/07/17 10:06:45;;;;;;;1.05;0.60;;;23.90;49.30;24.40;101718.00;;;;4953221;28;89234;-63
2022/07/17 10:09:10;;;;;;;1.58;0.95;;;24.00;48.90;24.30;101705.00;;;;4954336;28;87588;-61
2022/07/17 10:11:40;;;;;;;0.75;0.50;;;24.00;48.00;24.10;101705.00;;;;4934104;28;117862;-63
2022/07/17 10:14:11;;;;;;;1.65;0.52;;;23.90;47.80;23.90;101715.00;;;;4934631;28;106999;-62
2022/07/17 10:16:38;;;;;;;0.30;0.30;;;23.60;48.20;23.70;101716.00;;;;4934908;28;87848;-62
2022/07/17 10:19:18;;;;;;;0.60;0.50;;;23.50;48.60;23.60;101723.00;;;;4954021;28;87759;-62
2022/07/17 10:21:58;;;;;;;0.75;0.40;;;23.30;48.20;23.40;101715.00;;;;4953597;28;88597;-62
2022/07/17 10:24:25;;;;;;;2.03;0.65;;;23.20;48.50;23.40;101718.00;;;;4953708;28;104384;-62
2022/07/17 10:26:51;;;;;;;1.27;0.73;;;23.20;48.80;23.60;101707.00;;;;4953788;28;87897;-62
2022/07/17 10:29:28;;;;;;;0.68;0.43;;;23.20;49.50;23.80;101714.00;;;;4952846;28;110924;-62
2022/07/17 10:31:54;;;;;;;0.90;0.90;;;23.40;48.90;24.00;101710.00;;;;4952724;28;89007;-62
2022/07/17 10:34:53;;;;;;;1.30;0.60;;;23.60;48.60;24.10;101708.00;;;;4949927;28;117081;-62
2022/07/17 10:37:30;;;;;;;1.30;0.88;;;23.70;47.80;24.30;101709.00;;;;4953360;28;87679;-63
2022/07/17 10:40:04;;;;;;;0.55;0.40;;;23.80;48.10;24.70;101720.00;;;;4953447;28;87776;-63
2022/07/17 10:43:01;;;;;;;1.75;0.40;;;24.10;47.90;24.90;101717.00;;;;4953050;28;88878;-63
2022/07/17 10:45:34;;;;;;;1.25;0.38;;;24.40;46.70;25.10;101701.00;;;;4952894;28;87961;-62
2022/07/17 10:48:05;;;;;;;0.30;0.30;;;24.60;46.80;25.40;101716.00;;;;4953652;28;88223;-62